Time;durP1;ratioP1;P1;durP2;ratioP2;P2;SDS_P1;SDS_P2;PMS_P1;PMS_P2;Temp;Humidity;BMP_temperature;BMP_pressure;BME280_temperature;BME280_humidity;BME280_pressure;Samples;Min_cycle;Max_cycle;Signal;HPM_P1;HPM_P2
2022/06/03 08:46:03;;;;;;;12.23;6.43;;;17.70;98.50;;;;;;5107358;27;1287043;-51
2022/06/03 08:48:30;;;;;;;11.10;5.32;;;17.70;98.40;;;;;;5118912;28;20111;-57
2022/06/03 08:50:56;;;;;;;10.70;5.72;;;17.80;99.10;;;;;;5125081;28;20423;-50
2022/06/03 08:53:23;;;;;;;9.55;5.88;;;18.00;99.20;;;;;;5125025;28;20502;-53
2022/06/03 08:55:50;;;;;;;9.65;5.75;;;18.00;98.50;;;;;;5131102;28;20059;-55
2022/06/03 08:58:17;;;;;;;13.38;6.10;;;18.10;98.20;;;;;;5130577;27;20043;-50
2022/06/03 09:00:44;;;;;;;12.18;5.82;;;18.20;97.80;;;;;;5126382;27;20051;-50
2022/06/03 09:03:11;;;;;;;9.50;5.55;;;18.40;98.00;;;;;;5130137;28;20035;-51
2022/06/03 09:05:37;;;;;;;11.82;5.25;;;18.50;97.80;;;;;;5131186;28;20043;-55
2022/06/03 09:08:04;;;;;;;8.82;5.20;;;18.50;97.30;;;;;;5129391;28;20039;-55
2022/06/03 09:10:31;;;;;;;10.27;5.28;;;18.70;96.90;;;;;;5130803;28;20084;-52
2022/06/03 09:12:58;;;;;;;12.13;5.85;;;18.90;96.90;;;;;;5129663;27;20042;-51
2022/06/03 09:15:25;;;;;;;9.50;5.90;;;19.00;96.30;;;;;;5131076;28;20039;-56
2022/06/03 09:17:51;;;;;;;10.15;5.47;;;19.00;96.00;;;;;;5131142;27;20039;-51
2022/06/03 09:20:18;;;;;;;10.98;5.07;;;19.00;96.10;;;;;;5129459;28;20088;-52
2022/06/03 09:22:45;;;;;;;12.10;5.93;;;19.00;96.20;;;;;;5130438;27;20039;-50
2022/06/03 09:25:12;;;;;;;13.65;5.85;;;19.00;95.30;;;;;;5130308;28;20043;-51
2022/06/03 09:27:39;;;;;;;12.95;5.88;;;19.10;95.00;;;;;;5128979;27;20110;-52
2022/06/03 09:30:06;;;;;;;11.05;5.15;;;19.10;94.40;;;;;;5121461;27;20489;-55
2022/06/03 09:32:35;;;;;;;11.18;5.00;;;19.10;93.90;;;;;;5117292;28;20108;-60
2022/06/03 09:35:03;;;;;;;9.70;5.40;;;19.20;93.80;;;;;;5130107;27;20067;-52
2022/06/03 09:37:30;;;;;;;8.27;5.45;;;19.20;93.00;;;;;;5120643;28;20051;-55
2022/06/03 09:39:57;;;;;;;8.73;4.95;;;19.30;92.80;;;;;;5123957;27;20093;-52
2022/06/03 09:42:24;;;;;;;8.70;5.15;;;19.30;92.20;;;;;;5124881;28;20490;-56
2022/06/03 09:44:51;;;;;;;8.35;5.18;;;19.40;92.50;;;;;;5129566;27;20082;-53
2022/06/03 09:47:18;;;;;;;9.35;4.97;;;19.60;91.70;;;;;;5128239;28;20054;-52
2022/06/03 09:49:44;;;;;;;9.63;4.72;;;19.80;91.10;;;;;;5127616;27;20470;-55
2022/06/03 09:52:12;;;;;;;8.20;5.00;;;20.00;91.00;;;;;;5121479;28;20038;-55
2022/06/03 09:54:39;;;;;;;8.48;4.78;;;20.20;89.20;;;;;;5127818;28;20043;-52
2022/06/03 09:57:06;;;;;;;7.00;5.13;;;20.30;88.30;;;;;;5117672;28;20055;-55
2022/06/03 09:59:32;;;;;;;7.65;4.10;;;20.50;88.00;;;;;;5115798;28;20093;-50
2022/06/03 10:01:59;;;;;;;9.35;4.57;;;20.70;86.90;;;;;;5116064;28;20072;-56
2022/06/03 10:04:26;;;;;;;15.68;4.18;;;21.00;85.70;;;;;;5115754;28;20115;-55
2022/06/03 10:06:54;;;;;;;9.05;4.38;;;21.20;85.60;;;;;;5115674;28;20091;-55
2022/06/03 10:17:38;;;;;;;8.02;3.85;;;21.70;82.10;;;;;;5113808;27;20104;-56
2022/06/03 10:20:08;;;;;;;7.63;4.13;;;21.80;81.30;;;;;;5113379;28;20067;-55
2022/06/03 10:22:35;;;;;;;8.23;4.00;;;21.80;79.50;;;;;;5113541;28;20383;-56
2022/06/03 10:25:02;;;;;;;7.32;4.38;;;21.90;79.00;;;;;;5114693;28;20040;-50
2022/06/03 10:27:28;;;;;;;6.93;4.90;;;22.00;76.10;;;;;;5115982;28;20123;-53
2022/06/03 10:29:55;;;;;;;7.70;4.65;;;22.10;77.40;;;;;;5115913;28;20462;-55
2022/06/03 10:32:22;;;;;;;8.35;4.90;;;22.10;75.80;;;;;;5115844;28;20032;-52
2022/06/03 10:34:49;;;;;;;6.75;4.35;;;22.00;73.90;;;;;;5115783;28;20093;-54
2022/06/03 10:37:18;;;;;;;6.93;4.45;;;21.90;72.40;;;;;;5115816;28;20444;-50
2022/06/03 10:39:44;;;;;;;6.55;3.63;;;22.00;73.60;;;;;;5115758;28;20100;-53
2022/06/03 10:42:11;;;;;;;6.00;4.00;;;22.00;74.00;;;;;;5115631;28;20120;-58
2022/06/03 10:44:38;;;;;;;8.52;4.60;;;22.10;73.90;;;;;;5115239;28;20464;-53
2022/06/03 10:47:05;;;;;;;6.97;4.43;;;22.00;73.10;;;;;;5115528;28;20038;-53
2022/06/03 10:49:31;;;;;;;7.60;4.40;;;21.80;74.10;;;;;;5115632;28;20031;-51
2022/06/03 11:03:01;;;;;;;37.95;5.70;;;21.70;71.30;;;;;;5114950;28;20042;-55
2022/06/03 11:05:28;;;;;;;22.92;5.57;;;21.80;70.70;;;;;;5115087;28;20047;-51
2022/06/03 11:07:55;;;;;;;11.02;3.63;;;21.80;70.90;;;;;;5114192;28;20044;-51
2022/06/03 11:10:21;;;;;;;13.05;4.57;;;21.90;70.20;;;;;;5114894;28;20497;-55
2022/06/03 11:13:08;;;;;;;7.93;3.88;;;21.90;69.60;;;;;;5115037;28;20043;-53
2022/06/03 11:15:35;;;;;;;9.23;4.75;;;22.00;69.90;;;;;;5114657;28;20039;-54
2022/06/03 11:18:03;;;;;;;6.03;3.67;;;22.00;69.60;;;;;;5114736;28;20520;-56
2022/06/03 11:20:29;;;;;;;23.90;5.32;;;21.90;67.90;;;;;;5114723;28;20096;-53
2022/06/03 11:22:56;;;;;;;18.65;4.65;;;21.70;69.00;;;;;;5113380;28;20048;-52
2022/06/03 11:25:25;;;;;;;25.73;5.50;;;21.70;69.80;;;;;;5114569;28;20043;-53
2022/06/03 11:27:52;;;;;;;51.17;7.53;;;21.60;67.80;;;;;;5114805;28;20142;-52
2022/06/03 11:30:18;;;;;;;7.43;3.55;;;21.60;68.00;;;;;;5114446;28;20051;-53
2022/06/03 11:32:45;;;;;;;27.13;6.03;;;21.60;68.10;;;;;;5114538;28;20039;-55
2022/06/03 11:35:12;;;;;;;13.27;4.72;;;21.60;68.10;;;;;;5114377;28;20436;-50
2022/06/03 11:37:39;;;;;;;13.35;4.60;;;21.40;69.80;;;;;;5114541;28;20044;-53
2022/06/03 11:40:06;;;;;;;8.52;4.70;;;21.50;69.80;;;;;;5114591;28;20151;-52
2022/06/03 11:42:33;;;;;;;10.07;4.88;;;21.60;69.10;;;;;;5114782;28;20055;-56
2022/06/03 11:45:00;;;;;;;8.43;5.28;;;21.70;69.80;;;;;;5114223;28;20062;-54
2022/06/03 11:47:27;;;;;;;10.73;4.57;;;21.80;69.60;;;;;;5114346;28;20089;-52
2022/06/03 11:49:53;;;;;;;10.80;5.18;;;21.80;68.90;;;;;;5113476;28;20466;-58
2022/06/03 11:52:21;;;;;;;52.80;8.77;;;21.80;68.30;;;;;;5114786;28;20040;-55
2022/06/03 11:54:48;;;;;;;121.53;15.65;;;21.80;68.60;;;;;;5113968;28;20044;-56
2022/06/03 11:57:15;;;;;;;70.78;10.57;;;21.80;69.40;;;;;;5114140;28;20435;-51
2022/06/03 11:59:42;;;;;;;62.47;9.68;;;21.80;68.30;;;;;;5114204;27;20039;-52
2022/06/03 12:02:09;;;;;;;140.38;14.77;;;21.80;68.90;;;;;;5114277;28;20085;-55
2022/06/03 12:04:36;;;;;;;51.28;8.40;;;21.70;68.50;;;;;;5113980;28;20043;-55
2022/06/03 12:07:04;;;;;;;53.55;8.48;;;21.50;67.90;;;;;;5112755;28;20126;-55
2022/06/03 12:09:31;;;;;;;51.03;8.25;;;21.40;68.10;;;;;;5113835;28;20452;-57
2022/06/03 12:14:44;;;;;;;108.43;13.32;;;21.40;68.40;;;;;;5113705;28;20043;-55
2022/06/03 12:17:10;;;;;;;9.15;5.78;;;21.50;67.10;;;;;;5113983;28;20164;-50
2022/06/03 12:19:37;;;;;;;59.90;9.43;;;21.50;67.40;;;;;;5113261;28;20051;-54
2022/06/03 12:22:04;;;;;;;40.05;8.05;;;21.70;67.40;;;;;;5114145;28;20088;-53
2022/06/03 12:24:31;;;;;;;132.02;14.70;;;21.90;67.50;;;;;;5112175;28;20036;-51
2022/06/03 12:27:00;;;;;;;97.20;12.35;;;22.00;66.80;;;;;;5113178;28;20478;-55
2022/06/03 12:29:27;;;;;;;115.50;14.45;;;22.20;66.40;;;;;;5113815;28;20043;-49
2022/06/03 12:31:54;;;;;;;75.60;9.88;;;22.40;66.60;;;;;;5113709;28;20047;-52
2022/06/03 12:34:21;;;;;;;94.85;11.40;;;22.60;66.40;;;;;;5113149;28;20042;-51
2022/06/03 12:36:51;;;;;;;92.10;12.68;;;22.60;65.20;;;;;;5110862;28;20391;-56
2022/06/03 12:39:18;;;;;;;57.58;7.72;;;22.60;62.70;;;;;;5106210;28;20563;-51
2022/06/03 12:41:44;;;;;;;70.65;9.63;;;22.70;63.90;;;;;;5112574;28;20089;-54
2022/06/03 12:44:11;;;;;;;103.90;11.73;;;22.80;62.80;;;;;;5108008;28;20850;-52
2022/06/03 12:46:38;;;;;;;14.98;7.20;;;22.70;63.90;;;;;;5107769;28;20100;-55
2022/06/03 12:49:05;;;;;;;16.30;6.57;;;22.80;61.90;;;;;;5110385;28;20044;-54
2022/06/03 12:51:33;;;;;;;9.77;5.38;;;22.90;62.40;;;;;;5111760;28;20048;-52
2022/06/03 12:54:00;;;;;;;9.90;5.45;;;22.90;62.50;;;;;;5113167;28;20108;-52
2022/06/03 12:56:27;;;;;;;11.00;5.20;;;23.00;63.30;;;;;;5113206;28;20391;-55
2022/06/03 12:58:54;;;;;;;11.45;5.57;;;22.90;62.50;;;;;;5111722;28;20040;-49
2022/06/03 13:01:23;;;;;;;11.23;5.63;;;22.90;61.60;;;;;;5113020;28;20066;-54
2022/06/03 13:03:50;;;;;;;12.43;5.00;;;22.80;62.10;;;;;;5105217;28;20126;-51
2022/06/03 13:06:18;;;;;;;7.88;4.90;;;22.80;62.90;;;;;;5112765;28;20043;-50
2022/06/03 13:11:30;;;;;;;10.20;5.35;;;22.90;62.30;;;;;;5113020;28;20050;-57
2022/06/03 13:13:57;;;;;;;11.95;5.53;;;23.00;60.50;;;;;;5113065;28;20048;-54
2022/06/03 13:16:31;;;;;;;10.57;5.75;;;23.10;60.40;;;;;;5112983;28;20035;-52
2022/06/03 13:19:00;;;;;;;8.52;5.35;;;23.10;61.00;;;;;;5113236;28;20097;-54
2022/06/03 13:21:28;;;;;;;9.38;5.15;;;23.20;60.60;;;;;;5113500;28;20040;-59
2022/06/03 13:23:55;;;;;;;9.10;5.40;;;23.20;59.70;;;;;;5113180;28;20059;-53
2022/06/03 13:26:28;;;;;;;10.23;5.50;;;23.10;60.10;;;;;;5113263;28;20044;-53
2022/06/03 13:28:54;;;;;;;10.25;5.30;;;23.10;60.20;;;;;;5113125;28;20047;-54
2022/06/03 13:31:21;;;;;;;8.00;4.60;;;23.10;60.40;;;;;;5114408;28;20044;-52
2022/06/03 21:19:08;;;;;;;7.65;5.00;;;15.60;99.90;;;;;;5069922;28;20433;-52
2022/06/03 21:21:35;;;;;;;11.43;5.65;;;15.30;99.90;;;;;;5050829;28;20053;-53
2022/06/03 21:24:01;;;;;;;10.73;5.25;;;15.30;99.90;;;;;;5054820;28;20095;-51
2022/06/03 21:26:28;;;;;;;12.45;5.32;;;15.30;99.90;;;;;;5050026;28;20071;-56
2022/06/03 21:28:55;;;;;;;10.00;4.72;;;15.30;99.90;;;;;;5051885;28;20046;-56
2022/06/03 21:31:42;;;;;;;9.82;4.57;;;15.30;99.90;;;;;;5050300;28;20041;-54
2022/06/03 21:34:24;;;;;;;14.15;4.82;;;15.30;99.90;;;;;;5049847;28;20484;-49
2022/06/03 21:36:50;;;;;;;6.50;3.85;;;15.40;99.90;;;;;;5049796;28;20037;-52
2022/06/03 21:39:17;;;;;;;8.02;4.22;;;15.30;99.80;;;;;;5049385;28;20140;-50
2022/06/03 21:41:44;;;;;;;13.35;4.45;;;15.30;99.90;;;;;;5049853;28;20037;-51
2022/06/03 21:44:11;;;;;;;6.72;3.85;;;15.40;99.70;;;;;;5048283;28;20053;-54
2022/06/03 21:46:39;;;;;;;11.05;3.95;;;15.30;99.40;;;;;;5054004;28;20036;-54
2022/06/03 21:49:06;;;;;;;12.70;4.43;;;15.30;99.60;;;;;;5049751;28;20120;-54
2022/06/03 21:51:33;;;;;;;7.93;4.10;;;15.30;99.90;;;;;;5053641;28;20033;-53
2022/06/03 21:54:00;;;;;;;6.75;3.42;;;15.30;99.70;;;;;;5049762;28;20068;-51
2022/06/03 21:56:26;;;;;;;9.70;4.07;;;15.30;99.50;;;;;;5050030;28;20118;-51
2022/06/03 21:58:53;;;;;;;6.65;3.55;;;15.30;99.80;;;;;;5053567;28;20420;-55
